Time;durP1;ratioP1;P1;durP2;ratioP2;P2;SDS_P1;SDS_P2;PMS_P1;PMS_P2;Temp;Humidity;BMP_temperature;BMP_pressure;BME280_temperature;BME280_humidity;BME280_pressure;Samples;Min_cycle;Max_cycle;Signal;HPM_P1;HPM_P2
2023/11/11 00:01:02;;;;;;;;;;;6.60;99.90;;;;;;8354841;28;19940;-71
2023/11/11 00:05:04;;;;;;;;;;;6.50;99.90;;;;;;8357418;28;19933;-71
2023/11/11 00:09:05;;;;;;;;;;;6.40;99.90;;;;;;8351729;28;19936;-71
2023/11/11 00:13:08;;;;;;;;;;;6.30;99.90;;;;;;8352523;28;19931;-71
2023/11/11 00:17:10;;;;;;;;;;;6.30;99.90;;;;;;8343686;28;19987;-71
2023/11/11 00:36:23;;;;;;;;;;;6.10;99.90;;;;;;8355034;28;19971;-71
2023/11/11 00:40:25;;;;;;;;;;;6.10;99.90;;;;;;8354058;28;19937;-70
2023/11/11 00:44:27;;;;;;;;;;;6.00;99.90;;;;;;8330225;28;19928;-70
2023/11/11 00:48:29;;;;;;;;;;;6.00;99.90;;;;;;8353628;28;19999;-70
2023/11/11 00:52:33;;;;;;;;;;;6.00;99.90;;;;;;8344198;28;19928;-71
2023/11/11 00:56:36;;;;;;;;;;;6.00;99.90;;;;;;8329446;28;21868;-70
2023/11/11 01:00:42;;;;;;;;;;;6.00;99.90;;;;;;8309183;28;21324;-71
2023/11/11 01:04:44;;;;;;;;;;;6.00;99.90;;;;;;8315950;28;19925;-71
2023/11/11 01:08:46;;;;;;;;;;;6.00;99.90;;;;;;8315357;28;19932;-71
2023/11/11 01:12:47;;;;;;;;;;;6.10;99.90;;;;;;8315974;28;19929;-70
2023/11/11 01:16:50;;;;;;;;;;;6.20;99.90;;;;;;8300770;28;20288;-71
2023/11/11 01:20:51;;;;;;;;;;;6.30;99.90;;;;;;8321299;28;21190;-71
2023/11/11 01:24:53;;;;;;;;;;;6.30;99.90;;;;;;8315238;28;19925;-71
2023/11/11 01:28:55;;;;;;;;;;;6.40;99.90;;;;;;8305756;28;19988;-71
2023/11/11 01:32:57;;;;;;;;;;;6.40;99.90;;;;;;8320374;28;19933;-71
2023/11/11 01:37:04;;;;;;;;;;;6.40;99.90;;;;;;8318633;28;19933;-71
2023/11/11 01:41:06;;;;;;;;;;;6.40;99.90;;;;;;8320465;28;19925;-70
2023/11/11 01:45:08;;;;;;;;;;;6.40;99.90;;;;;;8317337;28;19932;-71
2023/11/11 01:49:10;;;;;;;;;;;6.50;99.90;;;;;;8333988;28;20311;-70
2023/11/11 01:53:13;;;;;;;;;;;6.50;99.90;;;;;;8339158;28;20015;-70
2023/11/11 01:57:15;;;;;;;;;;;6.50;99.90;;;;;;8345115;28;20312;-70
2023/11/11 02:01:17;;;;;;;;;;;6.50;99.90;;;;;;8345600;28;20307;-70
2023/11/11 02:05:20;;;;;;;;;;;6.60;99.90;;;;;;8317857;28;20004;-71
2023/11/11 02:09:22;;;;;;;;;;;6.70;99.90;;;;;;8348010;28;19970;-71
2023/11/11 02:13:25;;;;;;;;;;;6.80;99.90;;;;;;8347605;28;19986;-70
2023/11/11 02:17:27;;;;;;;;;;;6.80;99.90;;;;;;8322068;28;19925;-71
2023/11/11 02:21:31;;;;;;;;;;;6.80;99.90;;;;;;8331082;28;19928;-71
2023/11/11 02:25:33;;;;;;;;;;;6.80;99.90;;;;;;8349112;28;19924;-70
2023/11/11 02:29:42;;;;;;;;;;;6.80;99.90;;;;;;8352581;28;19975;-71
2023/11/11 02:33:44;;;;;;;;;;;6.80;99.90;;;;;;8351305;28;19935;-71
2023/11/11 02:37:46;;;;;;;;;;;6.80;99.90;;;;;;8346709;28;19977;-71
2023/11/11 02:41:47;;;;;;;;;;;6.70;99.90;;;;;;8358909;28;19959;-70
2023/11/11 02:45:52;;;;;;;;;;;6.70;99.90;;;;;;8353445;28;20249;-71
2023/11/11 02:49:54;;;;;;;;;;;6.60;99.90;;;;;;8358597;28;19925;-70
2023/11/11 02:53:55;;;;;;;;;;;6.50;99.90;;;;;;8343778;28;19987;-71
2023/11/11 02:57:57;;;;;;;;;;;6.40;99.90;;;;;;8338507;28;19947;-71
2023/11/11 03:01:59;;;;;;;;;;;6.30;99.90;;;;;;8334296;28;20387;-72
2023/11/11 03:06:05;;;;;;;;;;;6.20;99.90;;;;;;8358346;28;20162;-71
2023/11/11 03:10:09;;;;;;;;;;;6.10;99.90;;;;;;8347402;28;19924;-71
2023/11/11 03:14:11;;;;;;;;;;;6.10;99.90;;;;;;8350813;28;19929;-71
2023/11/11 03:18:13;;;;;;;;;;;6.10;99.90;;;;;;8353013;28;19924;-71
2023/11/11 03:22:15;;;;;;;;;;;6.20;99.90;;;;;;8357701;28;19928;-71
2023/11/11 03:26:17;;;;;;;;;;;6.30;99.90;;;;;;8345700;28;19960;-71
2023/11/11 03:30:18;;;;;;;;;;;6.40;99.90;;;;;;8345442;28;20295;-70
2023/11/11 03:34:20;;;;;;;;;;;6.40;99.90;;;;;;8352915;28;20025;-71
2023/11/11 03:38:22;;;;;;;;;;;6.50;99.90;;;;;;8353667;28;19975;-70
2023/11/11 03:42:24;;;;;;;;;;;6.50;99.90;;;;;;8350773;28;20331;-71
2023/11/11 03:46:26;;;;;;;;;;;6.50;99.90;;;;;;8354699;28;19924;-70
2023/11/11 03:50:28;;;;;;;;;;;6.60;99.90;;;;;;8352167;28;19979;-70
2023/11/11 03:54:29;;;;;;;;;;;6.50;99.90;;;;;;8353354;28;20433;-71
2023/11/11 03:58:31;;;;;;;;;;;6.50;99.90;;;;;;8352732;28;19925;-70
2023/11/11 04:02:33;;;;;;;;;;;6.50;99.90;;;;;;8339323;28;19925;-70
2023/11/11 04:06:38;;;;;;;;;;;6.50;99.90;;;;;;8354032;28;20380;-71
2023/11/11 04:10:39;;;;;;;;;;;6.50;99.90;;;;;;8346736;28;19932;-71
2023/11/11 04:14:41;;;;;;;;;;;6.50;99.90;;;;;;8347066;28;19925;-71
2023/11/11 04:18:43;;;;;;;;;;;6.60;99.90;;;;;;8349333;28;20265;-70
2023/11/11 04:22:45;;;;;;;;;;;6.60;99.90;;;;;;8349505;28;19978;-70
2023/11/11 04:26:46;;;;;;;;;;;6.60;99.90;;;;;;8354666;28;19959;-71
2023/11/11 04:30:48;;;;;;;;;;;6.60;99.90;;;;;;8354506;28;19936;-70
2023/11/11 04:34:50;;;;;;;;;;;6.60;99.90;;;;;;8351079;28;19925;-70
2023/11/11 04:38:53;;;;;;;;;;;6.60;99.90;;;;;;8354661;28;19924;-70
2023/11/11 04:42:54;;;;;;;;;;;6.60;99.90;;;;;;8349823;28;20406;-70
2023/11/11 04:46:58;;;;;;;;;;;6.60;99.90;;;;;;8350793;28;19932;-71
2023/11/11 04:51:00;;;;;;;;;;;6.60;99.90;;;;;;8354702;28;19925;-71
2023/11/11 04:55:03;;;;;;;;;;;6.60;99.90;;;;;;8353477;28;19929;-71
2023/11/11 04:59:05;;;;;;;;;;;6.70;99.90;;;;;;8358826;28;19978;-71
2023/11/11 05:03:06;;;;;;;;;;;6.70;99.90;;;;;;8352971;28;19928;-70
2023/11/11 05:07:09;;;;;;;;;;;6.70;99.90;;;;;;8352773;28;19925;-71
2023/11/11 05:11:12;;;;;;;;;;;6.80;99.90;;;;;;8355283;28;19932;-71
2023/11/11 05:15:17;;;;;;;;;;;6.70;99.90;;;;;;8343737;28;20416;-71
2023/11/11 05:19:18;;;;;;;;;;;6.70;99.90;;;;;;8351415;28;20020;-71
2023/11/11 05:23:20;;;;;;;;;;;6.60;99.90;;;;;;8334896;28;20411;-71
2023/11/11 05:27:22;;;;;;;;;;;6.60;99.90;;;;;;8346693;28;19978;-71
2023/11/11 05:31:25;;;;;;;;;;;6.50;99.90;;;;;;8344237;28;20004;-71
2023/11/11 05:35:27;;;;;;;;;;;6.50;99.90;;;;;;8352427;28;19968;-72
2023/11/11 05:39:28;;;;;;;;;;;6.50;99.90;;;;;;8354498;28;19936;-71
2023/11/11 05:43:30;;;;;;;;;;;6.40;99.90;;;;;;8328392;28;19925;-71
2023/11/11 05:47:32;;;;;;;;;;;6.40;99.90;;;;;;8348388;28;19925;-71
2023/11/11 05:51:34;;;;;;;;;;;6.40;99.90;;;;;;8327485;28;19925;-71
2023/11/11 05:55:36;;;;;;;;;;;6.40;99.90;;;;;;8335825;28;19928;-71
2023/11/11 05:59:38;;;;;;;;;;;6.40;99.90;;;;;;8348624;28;19928;-72
2023/11/11 06:03:40;;;;;;;;;;;6.50;99.90;;;;;;8353460;28;20868;-71
2023/11/11 06:07:42;;;;;;;;;;;6.50;99.90;;;;;;8344831;28;19960;-71
2023/11/11 06:11:45;;;;;;;;;;;6.40;99.90;;;;;;8353739;28;19947;-71
2023/11/11 06:15:46;;;;;;;;;;;6.40;99.90;;;;;;8341901;28;19925;-71
2023/11/11 06:19:48;;;;;;;;;;;6.40;99.90;;;;;;8352061;28;19931;-71
2023/11/11 06:23:50;;;;;;;;;;;6.40;99.90;;;;;;8352760;28;19986;-71
2023/11/11 06:27:52;;;;;;;;;;;6.40;99.90;;;;;;8363328;28;19932;-71
2023/11/11 06:31:53;;;;;;;;;;;6.40;99.90;;;;;;8353812;28;19928;-71
2023/11/11 06:35:58;;;;;;;;;;;6.40;99.90;;;;;;8351132;28;19932;-71
2023/11/11 06:40:00;;;;;;;;;;;6.40;99.90;;;;;;8348864;28;20313;-71
2023/11/11 06:44:01;;;;;;;;;;;6.40;99.90;;;;;;8353686;28;19925;-72
2023/11/11 06:48:05;;;;;;;;;;;6.40;99.90;;;;;;8351993;28;20562;-71
2023/11/11 06:52:07;;;;;;;;;;;6.40;99.90;;;;;;8289563;28;1775442;-71
2023/11/11 06:56:13;;;;;;;;;;;6.40;99.90;;;;;;8353752;28;19932;-71
2023/11/11 07:00:18;;;;;;;;;;;6.40;99.90;;;;;;8351051;28;19991;-71
2023/11/11 07:14:59;;;;;;;;;;;6.30;99.90;;;;;;8348917;28;19920;-71
2023/11/11 07:19:03;;;;;;;;;;;6.30;99.90;;;;;;8352156;28;19979;-71
2023/11/11 07:23:05;;;;;;;;;;;6.20;99.90;;;;;;8355460;28;19925;-71
2023/11/11 07:27:06;;;;;;;;;;;6.20;99.90;;;;;;8357801;28;19979;-71
2023/11/11 07:31:08;;;;;;;;;;;6.20;99.90;;;;;;8355129;28;21928;-71
2023/11/11 07:35:14;;;;;;;;;;;6.20;99.90;;;;;;8355990;28;19936;-71
2023/11/11 07:39:16;;;;;;;;;;;6.30;99.90;;;;;;8342207;28;20327;-71
2023/11/11 07:43:19;;;;;;;;;;;6.30;99.90;;;;;;8349504;28;20620;-71
2023/11/11 07:47:21;;;;;;;;;;;6.40;99.90;;;;;;8354075;28;19936;-70
2023/11/11 07:51:24;;;;;;;;;;;6.40;99.90;;;;;;8339688;28;19954;-71
2023/11/11 07:55:26;;;;;;;;;;;6.40;99.90;;;;;;8350587;28;19979;-71
2023/11/11 07:59:29;;;;;;;;;;;6.40;99.90;;;;;;8357442;28;20140;-71
2023/11/11 08:03:33;;;;;;;;;;;6.40;99.90;;;;;;8325309;28;19933;-71
2023/11/11 08:07:35;;;;;;;;;;;6.40;99.90;;;;;;8345265;28;19925;-72
2023/11/11 08:11:36;;;;;;;;;;;6.40;99.90;;;;;;8355216;28;19925;-71
2023/11/11 08:15:38;;;;;;;;;;;6.40;99.90;;;;;;8347413;28;19925;-71
2023/11/11 08:19:40;;;;;;;;;;;6.40;99.90;;;;;;8355118;28;19925;-71
2023/11/11 08:23:42;;;;;;;;;;;6.40;99.90;;;;;;8364756;28;20019;-72
2023/11/11 08:27:44;;;;;;;;;;;6.50;99.90;;;;;;8351762;28;19925;-71
2023/11/11 08:31:46;;;;;;;;;;;6.50;99.90;;;;;;8348004;28;19929;-72
2023/11/11 08:35:50;;;;;;;;;;;6.60;99.90;;;;;;8342145;28;19932;-71
2023/11/11 08:39:52;;;;;;;;;;;6.70;99.90;;;;;;8340187;28;19932;-71
2023/11/11 08:43:53;;;;;;;;;;;6.90;99.90;;;;;;8339585;28;19941;-71
2023/11/11 08:47:55;;;;;;;;;;;7.10;99.90;;;;;;8341765;28;20008;-72
2023/11/11 08:51:57;;;;;;;;;;;7.30;99.90;;;;;;8338516;28;19929;-71
2023/11/11 08:55:58;;;;;;;;;;;7.40;99.90;;;;;;8344889;28;20020;-71
2023/11/11 09:00:00;;;;;;;;;;;7.40;99.90;;;;;;8341131;28;19945;-71
2023/11/11 09:04:03;;;;;;;;;;;7.30;99.90;;;;;;8341387;28;19932;-71
2023/11/11 09:08:06;;;;;;;;;;;7.20;99.90;;;;;;8345681;28;20273;-71
2023/11/11 09:12:07;;;;;;;;;;;7.00;99.90;;;;;;8347651;28;19925;-71
2023/11/11 09:16:10;;;;;;;;;;;7.00;99.90;;;;;;8344914;28;19944;-71
2023/11/11 09:20:12;;;;;;;;;;;6.90;99.90;;;;;;8356024;28;20323;-71
2023/11/11 09:24:14;;;;;;;;;;;6.90;99.90;;;;;;8344084;28;19932;-71
2023/11/11 09:28:16;;;;;;;;;;;6.90;99.90;;;;;;8354911;28;19932;-71
2023/11/11 09:32:18;;;;;;;;;;;6.80;99.90;;;;;;8355222;28;19932;-71
2023/11/11 09:36:20;;;;;;;;;;;6.80;99.90;;;;;;8349008;28;20233;-71
2023/11/11 09:40:22;;;;;;;;;;;6.80;99.90;;;;;;8345258;28;19929;-71
2023/11/11 09:44:24;;;;;;;;;;;6.80;99.90;;;;;;8334263;28;20010;-71
2023/11/11 09:48:31;;;;;;;;;;;6.80;99.90;;;;;;8353567;28;19986;-71
2023/11/11 09:52:34;;;;;;;;;;;6.90;99.90;;;;;;8346671;28;19932;-71
2023/11/11 09:56:36;;;;;;;;;;;7.00;99.90;;;;;;8344797;28;19955;-71
2023/11/11 10:00:42;;;;;;;;;;;7.10;99.90;;;;;;8346390;28;19924;-70
2023/11/11 10:04:44;;;;;;;;;;;7.20;99.90;;;;;;8349812;28;19933;-71
2023/11/11 10:08:45;;;;;;;;;;;7.20;99.90;;;;;;8349532;28;19925;-71
2023/11/11 10:12:47;;;;;;;;;;;7.30;99.90;;;;;;8355726;28;20323;-71
2023/11/11 10:16:54;;;;;;;;;;;7.30;99.90;;;;;;8349942;28;19935;-71
2023/11/11 10:20:57;;;;;;;;;;;7.50;99.90;;;;;;8339184;28;19936;-71
2023/11/11 10:24:58;;;;;;;;;;;7.90;99.90;;;;;;8323194;28;19929;-71
2023/11/11 10:29:03;;;;;;;;;;;8.40;99.90;;;;;;8320217;28;20351;-71
2023/11/11 10:33:05;;;;;;;;;;;9.00;99.90;;;;;;8320569;28;19933;-71
2023/11/11 10:37:07;;;;;;;;;;;9.50;99.90;;;;;;8319382;28;19933;-71
2023/11/11 10:41:09;;;;;;;;;;;9.90;99.90;;;;;;8322846;28;19925;-71
2023/11/11 10:45:12;;;;;;;;;;;10.50;99.90;;;;;;8318443;28;19943;-71
2023/11/11 10:49:15;;;;;;;;;;;10.40;99.90;;;;;;8320120;28;20331;-71
2023/11/11 10:53:16;;;;;;;;;;;10.30;99.90;;;;;;8327448;28;20449;-71
2023/11/11 10:57:18;;;;;;;;;;;10.10;99.90;;;;;;8324347;28;20219;-71
2023/11/11 11:01:21;;;;;;;;;;;9.80;99.90;;;;;;8322366;28;20410;-71
2023/11/11 11:05:29;;;;;;;;;;;9.50;99.90;;;;;;8324745;28;19940;-72
2023/11/11 11:09:38;;;;;;;;;;;9.30;99.90;;;;;;8325541;28;19929;-71
2023/11/11 11:13:40;;;;;;;;;;;9.20;99.90;;;;;;8324465;28;20284;-71
2023/11/11 11:17:47;;;;;;;;;;;9.10;99.90;;;;;;8326479;28;19928;-71
2023/11/11 11:21:52;;;;;;;;;;;9.80;99.90;;;;;;8333293;28;19984;-71
2023/11/11 11:25:54;;;;;;;;;;;10.90;99.90;;;;;;8333103;28;19968;-71
2023/11/11 11:30:15;;;;;;;;;;;11.80;99.90;;;;;;8319139;28;19929;-71
2023/11/11 11:34:17;;;;;;;;;;;12.40;99.90;;;;;;8323477;28;19925;-71
2023/11/11 11:38:27;;;;;;;;;;;12.10;99.90;;;;;;8327613;28;20275;-71
2023/11/11 11:42:30;;;;;;;;;;;11.60;99.90;;;;;;8323474;28;20450;-71
2023/11/11 11:46:31;;;;;;;;;;;11.20;99.90;;;;;;8323183;28;19979;-71
2023/11/11 11:50:34;;;;;;;;;;;10.80;99.90;;;;;;8329836;28;20418;-71
2023/11/11 11:54:35;;;;;;;;;;;10.50;99.90;;;;;;8328981;28;19926;-71
2023/11/11 11:58:45;;;;;;;;;;;10.30;99.90;;;;;;8321853;28;19924;-71
2023/11/11 12:02:47;;;;;;;;;;;10.30;99.90;;;;;;8334755;28;20380;-71
2023/11/11 12:06:50;;;;;;;;;;;10.20;99.90;;;;;;8320269;28;19936;-71
2023/11/11 12:10:52;;;;;;;;;;;10.10;99.90;;;;;;8318329;28;19925;-71
2023/11/11 12:14:54;;;;;;;;;;;10.00;99.90;;;;;;8321990;28;20284;-71
2023/11/11 12:19:05;;;;;;;;;;;9.80;99.90;;;;;;8320539;28;19937;-71
2023/11/11 12:23:14;;;;;;;;;;;9.70;99.90;;;;;;8326857;28;19940;-71
2023/11/11 12:27:15;;;;;;;;;;;9.60;99.90;;;;;;8328110;28;19935;-71
2023/11/11 12:31:17;;;;;;;;;;;9.60;99.90;;;;;;8330129;28;19952;-71
2023/11/11 12:35:19;;;;;;;;;;;9.50;99.90;;;;;;8332985;28;19933;-71
2023/11/11 12:39:22;;;;;;;;;;;9.50;99.90;;;;;;8328845;28;19932;-71
2023/11/11 12:43:26;;;;;;;;;;;9.40;99.90;;;;;;8334315;28;19929;-71
2023/11/11 12:47:28;;;;;;;;;;;9.40;99.90;;;;;;8333837;28;19932;-71
2023/11/11 12:51:30;;;;;;;;;;;9.30;99.90;;;;;;8330782;28;19929;-73
2023/11/11 12:55:32;;;;;;;;;;;9.30;99.90;;;;;;8330513;28;19925;-73
2023/11/11 12:59:33;;;;;;;;;;;9.30;99.90;;;;;;8330483;28;19955;-72
2023/11/11 13:03:35;;;;;;;;;;;9.40;99.90;;;;;;8331854;28;19925;-73
2023/11/11 13:07:37;;;;;;;;;;;9.50;99.90;;;;;;8332242;28;20447;-71
2023/11/11 13:11:39;;;;;;;;;;;9.60;99.90;;;;;;8327367;28;19982;-71
2023/11/11 13:15:42;;;;;;;;;;;9.70;99.90;;;;;;8327199;28;19932;-73
2023/11/11 13:19:45;;;;;;;;;;;9.80;99.90;;;;;;8311514;28;19929;-71
2023/11/11 13:23:47;;;;;;;;;;;10.00;99.90;;;;;;8332144;28;19925;-71
2023/11/11 13:27:51;;;;;;;;;;;10.10;99.90;;;;;;8329171;28;24464;-71
2023/11/11 13:31:55;;;;;;;;;;;10.20;99.90;;;;;;8328560;28;20015;-71
2023/11/11 13:36:00;;;;;;;;;;;10.20;99.90;;;;;;8324690;28;21005;-71
2023/11/11 13:40:13;;;;;;;;;;;10.10;99.90;;;;;;8327677;28;20024;-71
2023/11/11 13:44:15;;;;;;;;;;;10.20;99.90;;;;;;8324199;28;20875;-71
2023/11/11 13:48:17;;;;;;;;;;;10.10;99.90;;;;;;8323443;28;19933;-72
2023/11/11 13:52:18;;;;;;;;;;;10.10;99.90;;;;;;8323300;28;19932;-71
2023/11/11 13:56:21;;;;;;;;;;;10.10;99.90;;;;;;8324173;28;19929;-71
2023/11/11 14:00:29;;;;;;;;;;;10.10;99.90;;;;;;8326366;28;19929;-72
2023/11/11 14:04:30;;;;;;;;;;;10.00;99.90;;;;;;8325669;28;19959;-71
2023/11/11 14:08:33;;;;;;;;;;;9.90;99.90;;;;;;8328956;28;20296;-72
2023/11/11 14:12:36;;;;;;;;;;;9.80;99.90;;;;;;8329842;28;19932;-71
2023/11/11 14:16:38;;;;;;;;;;;9.70;99.90;;;;;;8321299;28;19926;-71
2023/11/11 14:20:44;;;;;;;;;;;9.70;99.90;;;;;;8319267;28;19925;-71
2023/11/11 14:24:46;;;;;;;;;;;9.60;99.90;;;;;;8317389;28;19929;-71
2023/11/11 14:28:49;;;;;;;;;;;9.60;99.90;;;;;;8326354;28;19979;-71
2023/11/11 14:32:51;;;;;;;;;;;9.60;99.90;;;;;;8323135;28;20469;-71
2023/11/11 14:36:53;;;;;;;;;;;9.60;99.90;;;;;;8325530;28;19925;-71
2023/11/11 14:40:58;;;;;;;;;;;9.50;99.90;;;;;;8327623;28;20367;-71
2023/11/11 14:45:00;;;;;;;;;;;9.50;99.90;;;;;;8324073;28;19925;-71
2023/11/11 14:49:04;;;;;;;;;;;9.50;99.90;;;;;;8334253;28;19979;-71
2023/11/11 14:53:08;;;;;;;;;;;9.50;99.90;;;;;;8325447;28;19983;-71
2023/11/11 14:57:12;;;;;;;;;;;9.40;99.90;;;;;;8325525;28;19933;-71
2023/11/11 15:01:14;;;;;;;;;;;9.40;99.90;;;;;;8327974;28;19928;-71
2023/11/11 15:05:16;;;;;;;;;;;9.40;99.90;;;;;;8321086;28;20292;-71
2023/11/11 15:09:21;;;;;;;;;;;9.30;99.90;;;;;;8326805;28;20321;-71
2023/11/11 15:13:23;;;;;;;;;;;9.30;99.90;;;;;;8326640;28;19925;-71
2023/11/11 15:17:25;;;;;;;;;;;9.30;99.90;;;;;;8327980;28;19924;-71
2023/11/11 15:21:27;;;;;;;;;;;9.20;99.90;;;;;;8327840;28;19933;-71
2023/11/11 15:25:29;;;;;;;;;;;9.20;99.90;;;;;;8326035;28;19929;-71
2023/11/11 15:29:31;;;;;;;;;;;9.20;99.90;;;;;;8332787;28;19985;-71
2023/11/11 15:33:33;;;;;;;;;;;9.30;99.90;;;;;;8329755;28;19952;-71
2023/11/11 15:37:35;;;;;;;;;;;9.40;99.90;;;;;;8322808;28;19929;-71
2023/11/11 15:41:37;;;;;;;;;;;9.50;99.90;;;;;;8320790;28;19939;-72
2023/11/11 15:45:38;;;;;;;;;;;9.60;99.90;;;;;;8323684;28;19982;-71
2023/11/11 15:49:42;;;;;;;;;;;9.60;99.90;;;;;;8311666;28;19983;-71
2023/11/11 15:53:44;;;;;;;;;;;9.60;99.90;;;;;;8294582;28;20014;-71
2023/11/11 15:57:45;;;;;;;;;;;9.50;99.90;;;;;;8289666;28;19932;-71
2023/11/11 16:01:47;;;;;;;;;;;9.40;99.90;;;;;;8326675;28;19929;-71
2023/11/11 16:05:53;;;;;;;;;;;9.30;99.90;;;;;;8291342;28;19932;-71
2023/11/11 16:09:56;;;;;;;;;;;9.30;99.90;;;;;;8293397;28;19963;-71
2023/11/11 16:14:00;;;;;;;;;;;9.20;99.90;;;;;;8292642;28;19925;-71
2023/11/11 16:18:02;;;;;;;;;;;9.20;99.90;;;;;;8307522;28;19949;-71
2023/11/11 16:22:04;;;;;;;;;;;9.20;99.90;;;;;;8312511;28;19932;-71
2023/11/11 16:26:06;;;;;;;;;;;9.10;99.90;;;;;;8292439;28;19932;-71
2023/11/11 16:30:09;;;;;;;;;;;9.10;99.90;;;;;;8306092;28;19929;-71
2023/11/11 16:34:13;;;;;;;;;;;9.00;99.90;;;;;;8291651;28;19945;-72
2023/11/11 16:38:14;;;;;;;;;;;8.90;99.90;;;;;;8321593;28;20373;-71
2023/11/11 16:42:17;;;;;;;;;;;8.90;99.90;;;;;;8294249;28;20023;-71
2023/11/11 16:46:21;;;;;;;;;;;8.70;99.90;;;;;;8289162;28;19932;-71
2023/11/11 16:50:25;;;;;;;;;;;8.60;99.90;;;;;;8293513;28;19936;-71
2023/11/11 16:54:27;;;;;;;;;;;8.50;99.90;;;;;;8287970;28;19945;-71
2023/11/11 16:58:29;;;;;;;;;;;8.50;99.90;;;;;;8308623;28;19925;-71
2023/11/11 17:02:31;;;;;;;;;;;8.40;99.90;;;;;;8321658;28;20379;-71
2023/11/11 17:06:33;;;;;;;;;;;8.30;99.90;;;;;;8293177;28;19933;-71
2023/11/11 17:10:34;;;;;;;;;;;8.30;99.90;;;;;;8294289;28;19929;-72
2023/11/11 17:14:36;;;;;;;;;;;8.20;99.90;;;;;;8288485;28;19953;-71
2023/11/11 17:18:38;;;;;;;;;;;8.20;99.90;;;;;;8291742;28;19985;-71
2023/11/11 17:22:39;;;;;;;;;;;8.20;99.90;;;;;;8323500;28;20397;-71
2023/11/11 17:26:41;;;;;;;;;;;8.20;99.90;;;;;;8290665;28;19926;-71
2023/11/11 17:30:44;;;;;;;;;;;8.20;99.90;;;;;;8289196;28;19933;-71
2023/11/11 17:34:47;;;;;;;;;;;8.30;99.90;;;;;;8305384;28;20440;-71
2023/11/11 17:38:48;;;;;;;;;;;8.20;99.90;;;;;;8290904;28;19927;-70
2023/11/11 17:42:50;;;;;;;;;;;8.20;99.90;;;;;;8304795;28;19926;-71
2023/11/11 17:46:51;;;;;;;;;;;8.20;99.90;;;;;;8286538;28;19925;-71
2023/11/11 17:50:54;;;;;;;;;;;8.10;99.90;;;;;;8298562;28;19925;-71
2023/11/11 17:54:57;;;;;;;;;;;8.10;99.90;;;;;;8321489;28;20020;-71
2023/11/11 17:58:59;;;;;;;;;;;8.10;99.90;;;;;;8334657;28;19940;-71
2023/11/11 18:03:00;;;;;;;;;;;8.10;99.90;;;;;;8321407;28;20290;-71
2023/11/11 18:07:02;;;;;;;;;;;8.10;99.90;;;;;;8322196;28;19925;-72
2023/11/11 18:11:08;;;;;;;;;;;8.10;99.90;;;;;;8324856;28;20339;-71
2023/11/11 18:15:10;;;;;;;;;;;8.10;99.90;;;;;;8319368;28;19978;-71
2023/11/11 18:19:13;;;;;;;;;;;8.10;99.90;;;;;;8326492;28;19932;-71
2023/11/11 18:23:14;;;;;;;;;;;8.10;99.90;;;;;;8323077;28;20397;-71
2023/11/11 18:27:16;;;;;;;;;;;8.10;99.90;;;;;;8321033;28;20278;-71
2023/11/11 18:31:18;;;;;;;;;;;8.10;99.90;;;;;;8322144;28;19929;-71
2023/11/11 18:35:20;;;;;;;;;;;8.10;99.90;;;;;;8320352;28;19925;-71
2023/11/11 18:39:21;;;;;;;;;;;8.10;99.90;;;;;;8323204;28;19971;-71
2023/11/11 18:43:23;;;;;;;;;;;8.10;99.90;;;;;;8323628;28;19979;-71
2023/11/11 18:47:26;;;;;;;;;;;8.10;99.90;;;;;;8323788;28;19925;-71
2023/11/11 18:51:28;;;;;;;;;;;8.10;99.90;;;;;;8322717;28;19971;-70
2023/11/11 18:55:29;;;;;;;;;;;8.10;99.90;;;;;;8322190;28;19929;-71
2023/11/11 18:59:31;;;;;;;;;;;8.10;99.90;;;;;;8325117;28;19925;-71
2023/11/11 19:03:33;;;;;;;;;;;8.10;99.90;;;;;;8323395;28;20373;-71
2023/11/11 19:07:35;;;;;;;;;;;8.10;99.90;;;;;;8323760;28;20431;-71
2023/11/11 19:11:38;;;;;;;;;;;8.00;99.90;;;;;;8325554;28;19929;-71
2023/11/11 19:15:39;;;;;;;;;;;8.10;99.90;;;;;;8326403;28;19931;-71
2023/11/11 19:19:41;;;;;;;;;;;8.10;99.90;;;;;;8326280;28;19926;-72
2023/11/11 19:23:43;;;;;;;;;;;8.10;99.90;;;;;;8328098;28;20211;-71
2023/11/11 19:27:45;;;;;;;;;;;8.20;99.90;;;;;;8331291;28;19926;-71
2023/11/11 19:31:47;;;;;;;;;;;8.20;99.90;;;;;;8328391;28;19925;-71
2023/11/11 19:35:49;;;;;;;;;;;8.20;99.90;;;;;;8321388;28;19979;-71
2023/11/11 19:39:51;;;;;;;;;;;8.30;99.90;;;;;;8325603;28;19928;-70
2023/11/11 19:43:53;;;;;;;;;;;8.30;99.90;;;;;;8323506;28;19964;-71
2023/11/11 19:57:51;;;;;;;;;;;8.30;99.90;;;;;;8258603;28;19973;-70
2023/11/11 20:01:52;;;;;;;;;;;8.30;99.90;;;;;;8257801;28;20403;-71
2023/11/11 20:05:54;;;;;;;;;;;8.30;99.90;;;;;;8257944;28;19932;-70
2023/11/11 20:09:56;;;;;;;;;;;8.30;99.90;;;;;;8257035;28;20515;-71
2023/11/11 20:13:58;;;;;;;;;;;8.30;99.90;;;;;;8258682;28;19933;-70
2023/11/11 20:18:00;;;;;;;;;;;8.30;99.90;;;;;;8258311;28;20020;-70
2023/11/11 20:22:02;;;;;;;;;;;8.30;99.90;;;;;;8257787;28;19929;-71
2023/11/11 20:26:04;;;;;;;;;;;8.30;99.90;;;;;;8253784;28;20305;-71
2023/11/11 20:30:06;;;;;;;;;;;8.30;99.90;;;;;;8255520;28;19980;-71
2023/11/11 20:34:08;;;;;;;;;;;8.30;99.90;;;;;;8255124;28;19929;-71
2023/11/11 20:38:10;;;;;;;;;;;8.40;99.90;;;;;;8256172;28;19984;-71
2023/11/11 20:42:11;;;;;;;;;;;8.30;99.90;;;;;;8255414;28;19934;-71
2023/11/11 20:46:23;;;;;;;;;;;8.30;99.90;;;;;;8257931;28;19968;-71
2023/11/11 20:50:28;;;;;;;;;;;8.30;99.90;;;;;;8255841;28;19929;-71
2023/11/11 20:54:32;;;;;;;;;;;8.40;99.90;;;;;;8265731;28;19929;-72
2023/11/11 20:58:35;;;;;;;;;;;8.40;99.90;;;;;;8324755;28;19956;-71
2023/11/11 21:02:36;;;;;;;;;;;8.40;99.90;;;;;;8324425;28;19933;-71
2023/11/11 21:06:38;;;;;;;;;;;8.40;99.90;;;;;;8323534;28;19929;-71
2023/11/11 21:10:41;;;;;;;;;;;8.30;99.90;;;;;;8323287;28;19983;-71
2023/11/11 21:14:42;;;;;;;;;;;8.30;99.90;;;;;;8322056;28;19925;-70
2023/11/11 21:18:45;;;;;;;;;;;8.20;99.90;;;;;;8326351;28;20062;-72
2023/11/11 21:22:50;;;;;;;;;;;8.20;99.90;;;;;;8304579;28;19925;-71
2023/11/11 21:26:52;;;;;;;;;;;8.10;99.90;;;;;;8322083;28;19932;-71
2023/11/11 21:30:54;;;;;;;;;;;8.10;99.90;;;;;;8325293;28;19932;-71
2023/11/11 21:34:56;;;;;;;;;;;8.00;99.90;;;;;;8328951;28;20011;-72
2023/11/11 21:38:58;;;;;;;;;;;8.00;99.90;;;;;;8328705;28;20400;-71
2023/11/11 21:43:00;;;;;;;;;;;8.00;99.90;;;;;;8326872;28;19929;-71
2023/11/11 21:47:01;;;;;;;;;;;8.00;99.90;;;;;;8324340;28;19983;-70
2023/11/11 21:51:04;;;;;;;;;;;8.00;99.90;;;;;;8329426;28;19929;-70
2023/11/11 21:55:06;;;;;;;;;;;8.00;99.90;;;;;;8327125;28;20376;-71
2023/11/11 21:59:08;;;;;;;;;;;8.00;99.90;;;;;;8320030;28;22204;-71
2023/11/11 22:03:12;;;;;;;;;;;8.00;99.90;;;;;;8335612;28;19931;-71
2023/11/11 22:07:14;;;;;;;;;;;8.10;99.90;;;;;;8330224;28;19929;-71
2023/11/11 22:11:16;;;;;;;;;;;8.10;99.90;;;;;;8355053;28;19928;-71
2023/11/11 22:15:18;;;;;;;;;;;8.10;99.90;;;;;;8348210;28;20285;-71
2023/11/11 22:19:20;;;;;;;;;;;8.10;99.90;;;;;;8353991;28;19925;-71
2023/11/11 22:23:21;;;;;;;;;;;8.20;99.90;;;;;;8333929;28;19924;-71
2023/11/11 22:27:23;;;;;;;;;;;8.20;99.90;;;;;;8345322;28;19931;-71
2023/11/11 22:31:26;;;;;;;;;;;8.20;99.90;;;;;;8356470;28;19968;-71
2023/11/11 22:35:27;;;;;;;;;;;8.20;99.90;;;;;;8349453;28;19975;-71
2023/11/11 22:39:29;;;;;;;;;;;8.20;99.90;;;;;;8344936;28;20388;-71
2023/11/11 22:43:34;;;;;;;;;;;8.20;99.90;;;;;;8354695;28;19928;-71
2023/11/11 22:47:36;;;;;;;;;;;8.20;99.90;;;;;;8357827;28;20328;-71
2023/11/11 22:51:37;;;;;;;;;;;8.20;99.90;;;;;;8362219;28;19944;-72
2023/11/11 22:55:39;;;;;;;;;;;8.20;99.90;;;;;;8360061;28;19950;-71
2023/11/11 22:59:41;;;;;;;;;;;8.10;99.90;;;;;;8362118;28;19932;-71
2023/11/11 23:03:43;;;;;;;;;;;8.10;99.90;;;;;;8344155;28;19925;-71
2023/11/11 23:07:45;;;;;;;;;;;8.20;99.90;;;;;;8360194;28;20008;-71
2023/11/11 23:11:46;;;;;;;;;;;8.10;99.90;;;;;;8362644;28;20059;-71
2023/11/11 23:15:48;;;;;;;;;;;8.10;99.90;;;;;;8352273;28;19925;-71
2023/11/11 23:19:50;;;;;;;;;;;8.00;99.90;;;;;;8355690;28;19968;-71
2023/11/11 23:23:51;;;;;;;;;;;8.10;99.90;;;;;;8359517;28;19925;-71
2023/11/11 23:27:53;;;;;;;;;;;8.10;99.90;;;;;;8355416;28;20012;-71
2023/11/11 23:31:55;;;;;;;;;;;8.10;99.90;;;;;;8360905;28;20261;-71
2023/11/11 23:35:58;;;;;;;;;;;8.10;99.90;;;;;;8359660;28;19979;-71
2023/11/11 23:40:00;;;;;;;;;;;8.10;99.90;;;;;;8362540;28;19929;-71
2023/11/11 23:44:02;;;;;;;;;;;8.00;99.90;;;;;;8359361;28;19925;-71
2023/11/11 23:48:03;;;;;;;;;;;7.90;99.90;;;;;;8361011;28;19929;-71
2023/11/11 23:52:06;;;;;;;;;;;7.80;99.90;;;;;;8360005;28;19925;-71
2023/11/11 23:56:08;;;;;;;;;;;7.70;99.90;;;;;;8348870;28;20356;-70
